sensor_id;sensor_type;location;lat;lon;timestamp;temperature;humidity
14893;DHT22;7538;53.626;9.906;2022-12-18T00:02:22;-3.60;99.90
14893;DHT22;7538;53.626;9.906;2022-12-18T00:04:49;-3.50;99.90
14893;DHT22;7538;53.626;9.906;2022-12-18T00:07:16;-3.50;99.90
14893;DHT22;7538;53.626;9.906;2022-12-18T00:09:43;-3.50;99.90
14893;DHT22;7538;53.626;9.906;2022-12-18T00:12:09;-3.50;99.90
14893;DHT22;7538;53.626;9.906;2022-12-18T00:14:36;-3.50;99.90
14893;DHT22;7538;53.626;9.906;2022-12-18T00:17:04;-3.50;99.90
14893;DHT22;7538;53.626;9.906;2022-12-18T00:19:31;-3.50;99.90
14893;DHT22;7538;53.626;9.906;2022-12-18T00:21:58;-3.50;99.90
14893;DHT22;7538;53.626;9.906;2022-12-18T00:24:25;-3.50;99.90
14893;DHT22;7538;53.626;9.906;2022-12-18T00:26:51;-3.50;99.90
14893;DHT22;7538;53.626;9.906;2022-12-18T00:29:18;-3.50;99.90
14893;DHT22;7538;53.626;9.906;2022-12-18T00:31:45;-3.50;99.90
14893;DHT22;7538;53.626;9.906;2022-12-18T00:34:13;-3.50;99.90
14893;DHT22;7538;53.626;9.906;2022-12-18T00:36:40;-3.60;99.90
14893;DHT22;7538;53.626;9.906;2022-12-18T00:39:07;-3.60;99.90
14893;DHT22;7538;53.626;9.906;2022-12-18T00:41:34;-3.60;99.90
14893;DHT22;7538;53.626;9.906;2022-12-18T00:44:19;-3.70;99.90
14893;DHT22;7538;53.626;9.906;2022-12-18T00:46:46;-3.70;99.90
14893;DHT22;7538;53.626;9.906;2022-12-18T00:49:16;-3.70;99.90
14893;DHT22;7538;53.626;9.906;2022-12-18T00:51:43;-3.80;99.90
14893;DHT22;7538;53.626;9.906;2022-12-18T00:54:10;-3.70;99.90
14893;DHT22;7538;53.626;9.906;2022-12-18T00:56:37;-3.80;99.90
14893;DHT22;7538;53.626;9.906;2022-12-18T00:59:04;-3.80;99.90
14893;DHT22;7538;53.626;9.906;2022-12-18T01:01:31;-3.80;99.90
14893;DHT22;7538;53.626;9.906;2022-12-18T01:04:00;-3.80;99.90
14893;DHT22;7538;53.626;9.906;2022-12-18T01:06:28;-3.80;99.90
14893;DHT22;7538;53.626;9.906;2022-12-18T01:08:55;-3.80;99.90
14893;DHT22;7538;53.626;9.906;2022-12-18T01:11:22;-3.90;99.90
14893;DHT22;7538;53.626;9.906;2022-12-18T01:13:51;-3.90;99.90
14893;DHT22;7538;53.626;9.906;2022-12-18T01:16:17;-3.90;99.90
14893;DHT22;7538;53.626;9.906;2022-12-18T01:18:44;-4.00;99.90
14893;DHT22;7538;53.626;9.906;2022-12-18T01:21:14;-3.90;99.90
14893;DHT22;7538;53.626;9.906;2022-12-18T01:23:45;-4.00;99.90
14893;DHT22;7538;53.626;9.906;2022-12-18T01:26:14;-4.00;99.90
14893;DHT22;7538;53.626;9.906;2022-12-18T01:28:41;-3.90;99.90
14893;DHT22;7538;53.626;9.906;2022-12-18T01:31:12;-3.80;99.90
14893;DHT22;7538;53.626;9.906;2022-12-18T01:33:39;-3.90;99.90
14893;DHT22;7538;53.626;9.906;2022-12-18T01:36:06;-3.90;99.90
14893;DHT22;7538;53.626;9.906;2022-12-18T01:38:32;-3.90;99.90
14893;DHT22;7538;53.626;9.906;2022-12-18T01:41:01;-3.90;99.90
14893;DHT22;7538;53.626;9.906;2022-12-18T01:43:47;-3.90;99.90
14893;DHT22;7538;53.626;9.906;2022-12-18T01:46:14;-3.90;99.90
14893;DHT22;7538;53.626;9.906;2022-12-18T01:48:42;-3.90;99.90
14893;DHT22;7538;53.626;9.906;2022-12-18T01:51:10;-3.90;99.90
14893;DHT22;7538;53.626;9.906;2022-12-18T01:53:39;-3.90;99.90
14893;DHT22;7538;53.626;9.906;2022-12-18T01:56:11;-3.90;99.90
14893;DHT22;7538;53.626;9.906;2022-12-18T01:58:43;-3.90;99.90
14893;DHT22;7538;53.626;9.906;2022-12-18T02:01:13;-3.90;99.90
14893;DHT22;7538;53.626;9.906;2022-12-18T02:03:41;-4.00;99.90
14893;DHT22;7538;53.626;9.906;2022-12-18T02:06:13;-4.00;99.90
14893;DHT22;7538;53.626;9.906;2022-12-18T02:08:47;-4.00;99.90
14893;DHT22;7538;53.626;9.906;2022-12-18T02:11:20;-4.00;99.90
14893;DHT22;7538;53.626;9.906;2022-12-18T02:13:57;-4.00;99.90
14893;DHT22;7538;53.626;9.906;2022-12-18T02:16:29;-4.10;99.90
14893;DHT22;7538;53.626;9.906;2022-12-18T02:19:01;-4.10;99.90
14893;DHT22;7538;53.626;9.906;2022-12-18T02:21:37;-4.10;99.90
14893;DHT22;7538;53.626;9.906;2022-12-18T02:24:18;-4.10;99.90
14893;DHT22;7538;53.626;9.906;2022-12-18T02:26:54;-4.10;99.90
14893;DHT22;7538;53.626;9.906;2022-12-18T02:29:24;-4.10;99.90
14893;DHT22;7538;53.626;9.906;2022-12-18T02:31:54;-4.20;99.90
14893;DHT22;7538;53.626;9.906;2022-12-18T02:34:26;-4.10;99.90
14893;DHT22;7538;53.626;9.906;2022-12-18T02:36:54;-4.10;99.90
14893;DHT22;7538;53.626;9.906;2022-12-18T02:39:24;-4.10;99.90
14893;DHT22;7538;53.626;9.906;2022-12-18T02:41:53;-4.10;99.90
14893;DHT22;7538;53.626;9.906;2022-12-18T02:44:19;-4.10;99.90
14893;DHT22;7538;53.626;9.906;2022-12-18T02:46:49;-4.20;99.90
14893;DHT22;7538;53.626;9.906;2022-12-18T02:49:26;-4.20;99.90
14893;DHT22;7538;53.626;9.906;2022-12-18T02:51:58;-4.20;99.90
14893;DHT22;7538;53.626;9.906;2022-12-18T02:54:50;-5.10;99.90
14893;DHT22;7538;53.626;9.906;2022-12-18T02:57:28;-4.20;99.90
14893;DHT22;7538;53.626;9.906;2022-12-18T03:00:01;-4.20;99.90
14893;DHT22;7538;53.626;9.906;2022-12-18T03:02:35;-4.30;99.90
14893;DHT22;7538;53.626;9.906;2022-12-18T03:05:09;-4.20;99.90
14893;DHT22;7538;53.626;9.906;2022-12-18T03:07:40;-4.30;99.90
14893;DHT22;7538;53.626;9.906;2022-12-18T03:10:13;-4.30;99.90
14893;DHT22;7538;53.626;9.906;2022-12-18T03:12:45;-4.30;99.90
14893;DHT22;7538;53.626;9.906;2022-12-18T03:15:18;-4.40;99.90
14893;DHT22;7538;53.626;9.906;2022-12-18T03:17:50;-4.40;99.90
14893;DHT22;7538;53.626;9.906;2022-12-18T03:20:21;-4.40;99.90
14893;DHT22;7538;53.626;9.906;2022-12-18T03:22:52;-4.40;99.90
14893;DHT22;7538;53.626;9.906;2022-12-18T03:25:20;-4.40;99.90
14893;DHT22;7538;53.626;9.906;2022-12-18T03:27:53;-4.40;99.90
14893;DHT22;7538;53.626;9.906;2022-12-18T03:30:22;-2.00;99.90
14893;DHT22;7538;53.626;9.906;2022-12-18T03:32:52;-4.50;99.90
14893;DHT22;7538;53.626;9.906;2022-12-18T03:35:22;-4.50;99.90
14893;DHT22;7538;53.626;9.906;2022-12-18T03:37:50;-4.50;99.90
14893;DHT22;7538;53.626;9.906;2022-12-18T03:40:18;-4.60;99.90
14893;DHT22;7538;53.626;9.906;2022-12-18T03:42:50;-4.60;99.90
14893;DHT22;7538;53.626;9.906;2022-12-18T03:45:22;-4.60;99.90
14893;DHT22;7538;53.626;9.906;2022-12-18T03:47:59;-4.70;99.90
14893;DHT22;7538;53.626;9.906;2022-12-18T03:50:34;-4.70;99.90
14893;DHT22;7538;53.626;9.906;2022-12-18T03:53:13;-4.70;99.90
14893;DHT22;7538;53.626;9.906;2022-12-18T03:55:44;-4.70;99.90
14893;DHT22;7538;53.626;9.906;2022-12-18T03:58:15;-4.80;99.90
14893;DHT22;7538;53.626;9.906;2022-12-18T04:00:44;-4.80;99.90
14893;DHT22;7538;53.626;9.906;2022-12-18T04:03:12;-4.80;99.90
14893;DHT22;7538;53.626;9.906;2022-12-18T04:05:40;-4.80;99.90
14893;DHT22;7538;53.626;9.906;2022-12-18T04:08:08;-4.80;99.90
14893;DHT22;7538;53.626;9.906;2022-12-18T04:10:36;-4.80;99.90
14893;DHT22;7538;53.626;9.906;2022-12-18T04:13:03;-4.80;99.90
14893;DHT22;7538;53.626;9.906;2022-12-18T04:15:32;-4.80;99.90
14893;DHT22;7538;53.626;9.906;2022-12-18T04:18:00;-4.80;99.90
14893;DHT22;7538;53.626;9.906;2022-12-18T04:20:27;-4.60;99.90
14893;DHT22;7538;53.626;9.906;2022-12-18T04:22:54;-7.40;99.90
14893;DHT22;7538;53.626;9.906;2022-12-18T04:25:21;-4.70;99.90
14893;DHT22;7538;53.626;9.906;2022-12-18T04:27:47;-4.70;99.90
14893;DHT22;7538;53.626;9.906;2022-12-18T04:30:14;-4.70;99.90
14893;DHT22;7538;53.626;9.906;2022-12-18T04:32:42;-4.70;99.90
14893;DHT22;7538;53.626;9.906;2022-12-18T04:35:09;-4.70;99.90
14893;DHT22;7538;53.626;9.906;2022-12-18T04:37:37;-4.60;99.90
14893;DHT22;7538;53.626;9.906;2022-12-18T04:40:05;-4.70;99.90
14893;DHT22;7538;53.626;9.906;2022-12-18T04:42:32;-4.60;99.90
14893;DHT22;7538;53.626;9.906;2022-12-18T04:44:58;-4.60;99.90
14893;DHT22;7538;53.626;9.906;2022-12-18T04:47:25;-4.60;99.90
14893;DHT22;7538;53.626;9.906;2022-12-18T04:49:53;-4.60;99.90
14893;DHT22;7538;53.626;9.906;2022-12-18T04:52:20;-4.60;99.90
14893;DHT22;7538;53.626;9.906;2022-12-18T04:54:47;-4.60;99.90
14893;DHT22;7538;53.626;9.906;2022-12-18T04:57:13;-4.60;99.90
14893;DHT22;7538;53.626;9.906;2022-12-18T04:59:40;-4.60;99.90
14893;DHT22;7538;53.626;9.906;2022-12-18T05:02:07;-4.60;99.90
14893;DHT22;7538;53.626;9.906;2022-12-18T05:04:34;-4.60;99.90
14893;DHT22;7538;53.626;9.906;2022-12-18T05:07:02;-4.50;99.90
14893;DHT22;7538;53.626;9.906;2022-12-18T05:09:29;-4.60;99.90
14893;DHT22;7538;53.626;9.906;2022-12-18T05:11:56;-4.60;99.90
14893;DHT22;7538;53.626;9.906;2022-12-18T05:14:22;-4.60;99.90
14893;DHT22;7538;53.626;9.906;2022-12-18T05:16:49;-4.50;99.90
14893;DHT22;7538;53.626;9.906;2022-12-18T05:19:16;-4.50;99.90
14893;DHT22;7538;53.626;9.906;2022-12-18T05:21:43;-4.50;99.90
14893;DHT22;7538;53.626;9.906;2022-12-18T05:24:11;-4.50;99.90
14893;DHT22;7538;53.626;9.906;2022-12-18T05:26:38;-4.50;99.90
14893;DHT22;7538;53.626;9.906;2022-12-18T05:29:05;-4.50;99.90
14893;DHT22;7538;53.626;9.906;2022-12-18T05:31:32;-4.50;99.90
14893;DHT22;7538;53.626;9.906;2022-12-18T05:33:58;-4.50;99.90
14893;DHT22;7538;53.626;9.906;2022-12-18T05:36:25;-4.50;99.90
14893;DHT22;7538;53.626;9.906;2022-12-18T05:38:52;-4.50;99.90
14893;DHT22;7538;53.626;9.906;2022-12-18T05:41:20;-4.50;99.90
14893;DHT22;7538;53.626;9.906;2022-12-18T05:43:47;-4.40;99.90
14893;DHT22;7538;53.626;9.906;2022-12-18T05:46:15;-4.50;99.90
14893;DHT22;7538;53.626;9.906;2022-12-18T05:48:43;-4.50;99.90
14893;DHT22;7538;53.626;9.906;2022-12-18T05:51:12;-4.60;99.90
14893;DHT22;7538;53.626;9.906;2022-12-18T05:53:40;-4.70;99.90
14893;DHT22;7538;53.626;9.906;2022-12-18T05:56:08;-3.10;99.90
14893;DHT22;7538;53.626;9.906;2022-12-18T05:58:36;-4.60;99.90
14893;DHT22;7538;53.626;9.906;2022-12-18T06:01:09;-4.60;99.90
14893;DHT22;7538;53.626;9.906;2022-12-18T06:03:36;-4.60;99.90
14893;DHT22;7538;53.626;9.906;2022-12-18T06:06:03;-4.60;99.90
14893;DHT22;7538;53.626;9.906;2022-12-18T06:08:30;-4.60;99.90
14893;DHT22;7538;53.626;9.906;2022-12-18T06:10:56;-4.50;99.90
14893;DHT22;7538;53.626;9.906;2022-12-18T06:13:23;-4.50;99.90
14893;DHT22;7538;53.626;9.906;2022-12-18T06:15:51;-4.50;99.90
14893;DHT22;7538;53.626;9.906;2022-12-18T06:18:18;-4.50;99.90
14893;DHT22;7538;53.626;9.906;2022-12-18T06:20:45;-4.50;99.90
14893;DHT22;7538;53.626;9.906;2022-12-18T06:23:12;-4.50;99.90
14893;DHT22;7538;53.626;9.906;2022-12-18T06:25:39;-4.50;99.90
14893;DHT22;7538;53.626;9.906;2022-12-18T06:28:06;-4.50;99.90
14893;DHT22;7538;53.626;9.906;2022-12-18T06:30:32;-4.60;99.90
14893;DHT22;7538;53.626;9.906;2022-12-18T06:33:01;-4.60;99.90
14893;DHT22;7538;53.626;9.906;2022-12-18T06:35:27;-4.50;99.90
14893;DHT22;7538;53.626;9.906;2022-12-18T06:37:54;-4.50;99.90
14893;DHT22;7538;53.626;9.906;2022-12-18T06:40:21;-4.60;99.90
14893;DHT22;7538;53.626;9.906;2022-12-18T06:42:48;-4.70;99.90
14893;DHT22;7538;53.626;9.906;2022-12-18T06:45:16;-4.70;99.90
14893;DHT22;7538;53.626;9.906;2022-12-18T06:47:43;-4.80;99.90
14893;DHT22;7538;53.626;9.906;2022-12-18T06:50:11;-4.80;99.90
14893;DHT22;7538;53.626;9.906;2022-12-18T06:52:38;-4.80;99.90
14893;DHT22;7538;53.626;9.906;2022-12-18T06:55:06;-4.80;99.90
14893;DHT22;7538;53.626;9.906;2022-12-18T06:57:34;-4.80;99.90
14893;DHT22;7538;53.626;9.906;2022-12-18T07:00:00;-4.70;99.90
14893;DHT22;7538;53.626;9.906;2022-12-18T07:02:28;-4.80;99.90
14893;DHT22;7538;53.626;9.906;2022-12-18T07:04:55;-4.80;99.90
14893;DHT22;7538;53.626;9.906;2022-12-18T07:07:23;-4.80;99.90
14893;DHT22;7538;53.626;9.906;2022-12-18T07:09:50;-4.80;99.90
14893;DHT22;7538;53.626;9.906;2022-12-18T07:12:17;-4.70;99.90
14893;DHT22;7538;53.626;9.906;2022-12-18T07:14:44;-4.70;99.90
14893;DHT22;7538;53.626;9.906;2022-12-18T07:17:11;-4.60;99.90
14893;DHT22;7538;53.626;9.906;2022-12-18T07:19:37;-7.80;99.90
14893;DHT22;7538;53.626;9.906;2022-12-18T07:22:04;-4.60;99.90
14893;DHT22;7538;53.626;9.906;2022-12-18T07:24:33;-4.60;99.90
14893;DHT22;7538;53.626;9.906;2022-12-18T07:27:01;-4.60;99.90
14893;DHT22;7538;53.626;9.906;2022-12-18T07:29:27;-4.50;99.90
14893;DHT22;7538;53.626;9.906;2022-12-18T07:31:54;-4.50;99.90
14893;DHT22;7538;53.626;9.906;2022-12-18T07:34:21;-4.50;99.90
14893;DHT22;7538;53.626;9.906;2022-12-18T07:36:48;-4.50;99.90
14893;DHT22;7538;53.626;9.906;2022-12-18T07:39:15;-4.50;99.90
14893;DHT22;7538;53.626;9.906;2022-12-18T07:41:43;-4.50;99.90
14893;DHT22;7538;53.626;9.906;2022-12-18T07:44:31;-4.40;99.90
14893;DHT22;7538;53.626;9.906;2022-12-18T07:46:57;-4.40;99.90
14893;DHT22;7538;53.626;9.906;2022-12-18T07:49:24;-4.50;99.90
14893;DHT22;7538;53.626;9.906;2022-12-18T07:51:51;-4.40;99.90
14893;DHT22;7538;53.626;9.906;2022-12-18T07:54:20;-4.30;99.90
14893;DHT22;7538;53.626;9.906;2022-12-18T07:56:48;-4.30;99.90
14893;DHT22;7538;53.626;9.906;2022-12-18T07:59:15;-4.20;99.90
14893;DHT22;7538;53.626;9.906;2022-12-18T08:01:42;-4.20;99.90
14893;DHT22;7538;53.626;9.906;2022-12-18T08:04:09;-4.20;99.90
14893;DHT22;7538;53.626;9.906;2022-12-18T08:06:36;-4.10;99.90
14893;DHT22;7538;53.626;9.906;2022-12-18T08:09:03;-4.10;99.90
14893;DHT22;7538;53.626;9.906;2022-12-18T08:11:29;-4.10;99.90
14893;DHT22;7538;53.626;9.906;2022-12-18T08:13:58;-4.10;99.90
14893;DHT22;7538;53.626;9.906;2022-12-18T08:16:24;-4.00;99.90
14893;DHT22;7538;53.626;9.906;2022-12-18T08:18:52;-4.00;99.90
14893;DHT22;7538;53.626;9.906;2022-12-18T08:21:22;-3.90;99.90
14893;DHT22;7538;53.626;9.906;2022-12-18T08:23:50;-3.90;99.90
14893;DHT22;7538;53.626;9.906;2022-12-18T08:26:17;-3.80;99.90
14893;DHT22;7538;53.626;9.906;2022-12-18T08:28:44;-3.80;99.90
14893;DHT22;7538;53.626;9.906;2022-12-18T08:31:12;-3.80;99.90
14893;DHT22;7538;53.626;9.906;2022-12-18T08:33:40;-3.70;99.90
14893;DHT22;7538;53.626;9.906;2022-12-18T08:36:08;-3.80;99.90
14893;DHT22;7538;53.626;9.906;2022-12-18T08:38:35;-3.70;99.90
14893;DHT22;7538;53.626;9.906;2022-12-18T08:41:04;-0.40;99.90
14893;DHT22;7538;53.626;9.906;2022-12-18T08:43:32;-3.50;99.90
14893;DHT22;7538;53.626;9.906;2022-12-18T08:46:18;-3.60;99.90
14893;DHT22;7538;53.626;9.906;2022-12-18T08:48:45;-3.70;99.90
14893;DHT22;7538;53.626;9.906;2022-12-18T08:51:12;-3.70;99.90
14893;DHT22;7538;53.626;9.906;2022-12-18T08:53:39;-3.70;99.90
14893;DHT22;7538;53.626;9.906;2022-12-18T08:56:06;-3.50;99.90
14893;DHT22;7538;53.626;9.906;2022-12-18T08:58:33;-3.50;99.90
14893;DHT22;7538;53.626;9.906;2022-12-18T09:01:01;-3.30;99.90
14893;DHT22;7538;53.626;9.906;2022-12-18T09:03:29;-3.30;99.90
14893;DHT22;7538;53.626;9.906;2022-12-18T09:05:56;-3.10;99.90
14893;DHT22;7538;53.626;9.906;2022-12-18T09:08:23;-3.00;99.90
14893;DHT22;7538;53.626;9.906;2022-12-18T09:10:50;-3.00;99.90
14893;DHT22;7538;53.626;9.906;2022-12-18T09:13:18;-3.00;99.90
14893;DHT22;7538;53.626;9.906;2022-12-18T09:15:46;-2.90;99.90
14893;DHT22;7538;53.626;9.906;2022-12-18T09:18:14;-2.70;99.90
14893;DHT22;7538;53.626;9.906;2022-12-18T09:20:42;-2.60;99.90
14893;DHT22;7538;53.626;9.906;2022-12-18T09:23:10;-2.50;99.90
14893;DHT22;7538;53.626;9.906;2022-12-18T09:25:37;-2.40;99.90
14893;DHT22;7538;53.626;9.906;2022-12-18T09:28:06;-2.10;99.90
14893;DHT22;7538;53.626;9.906;2022-12-18T09:30:37;-1.90;99.90
14893;DHT22;7538;53.626;9.906;2022-12-18T09:33:04;-1.70;99.90
14893;DHT22;7538;53.626;9.906;2022-12-18T09:35:31;-1.40;99.90
14893;DHT22;7538;53.626;9.906;2022-12-18T09:37:59;-1.30;99.90
14893;DHT22;7538;53.626;9.906;2022-12-18T09:40:36;-1.10;99.90
14893;DHT22;7538;53.626;9.906;2022-12-18T09:43:06;-0.70;99.90
14893;DHT22;7538;53.626;9.906;2022-12-18T09:45:40;-0.20;99.90
14893;DHT22;7538;53.626;9.906;2022-12-18T09:48:10;0.30;99.90
14893;DHT22;7538;53.626;9.906;2022-12-18T09:50:40;0.80;99.90
14893;DHT22;7538;53.626;9.906;2022-12-18T09:53:13;1.20;99.90
14893;DHT22;7538;53.626;9.906;2022-12-18T09:55:43;1.70;99.90
14893;DHT22;7538;53.626;9.906;2022-12-18T09:58:18;2.30;98.90
14893;DHT22;7538;53.626;9.906;2022-12-18T10:00:46;2.80;97.10
14893;DHT22;7538;53.626;9.906;2022-12-18T10:03:14;3.10;96.00
14893;DHT22;7538;53.626;9.906;2022-12-18T10:05:47;3.10;95.20
14893;DHT22;7538;53.626;9.906;2022-12-18T10:08:21;3.30;95.00
14893;DHT22;7538;53.626;9.906;2022-12-18T10:10:51;3.40;94.70
14893;DHT22;7538;53.626;9.906;2022-12-18T10:13:23;3.20;93.80
14893;DHT22;7538;53.626;9.906;2022-12-18T10:16:08;2.90;94.40
14893;DHT22;7538;53.626;9.906;2022-12-18T10:18:50;2.60;94.70
14893;DHT22;7538;53.626;9.906;2022-12-18T10:21:24;2.30;95.30
14893;DHT22;7538;53.626;9.906;2022-12-18T10:23:58;2.10;95.80
14893;DHT22;7538;53.626;9.906;2022-12-18T10:26:27;1.80;96.30
14893;DHT22;7538;53.626;9.906;2022-12-18T10:28:54;1.50;96.80
14893;DHT22;7538;53.626;9.906;2022-12-18T10:31:24;1.30;97.40
14893;DHT22;7538;53.626;9.906;2022-12-18T10:33:51;1.00;98.60
14893;DHT22;7538;53.626;9.906;2022-12-18T10:36:17;0.70;99.30
14893;DHT22;7538;53.626;9.906;2022-12-18T10:38:44;0.50;99.90
14893;DHT22;7538;53.626;9.906;2022-12-18T10:41:25;0.50;99.90
14893;DHT22;7538;53.626;9.906;2022-12-18T10:44:11;0.50;99.90
14893;DHT22;7538;53.626;9.906;2022-12-18T10:46:39;0.30;99.90
14893;DHT22;7538;53.626;9.906;2022-12-18T10:49:18;0.30;99.90
14893;DHT22;7538;53.626;9.906;2022-12-18T10:51:46;0.20;99.90
14893;DHT22;7538;53.626;9.906;2022-12-18T10:54:15;0.00;99.90
14893;DHT22;7538;53.626;9.906;2022-12-18T10:56:45;0.10;99.90
14893;DHT22;7538;53.626;9.906;2022-12-18T10:59:14;0.00;99.90
14893;DHT22;7538;53.626;9.906;2022-12-18T11:01:50;0.00;99.90
14893;DHT22;7538;53.626;9.906;2022-12-18T11:04:20;-0.20;99.90
14893;DHT22;7538;53.626;9.906;2022-12-18T11:06:58;0.00;99.90
14893;DHT22;7538;53.626;9.906;2022-12-18T11:09:26;0.00;99.90
14893;DHT22;7538;53.626;9.906;2022-12-18T11:11:57;0.00;99.90
14893;DHT22;7538;53.626;9.906;2022-12-18T11:14:28;0.00;99.90
14893;DHT22;7538;53.626;9.906;2022-12-18T11:16:56;0.00;99.90
14893;DHT22;7538;53.626;9.906;2022-12-18T11:19:33;-0.10;99.90
14893;DHT22;7538;53.626;9.906;2022-12-18T11:22:03;-0.20;99.90
14893;DHT22;7538;53.626;9.906;2022-12-18T11:24:53;1.40;99.90
14893;DHT22;7538;53.626;9.906;2022-12-18T11:27:21;-0.30;99.90
14893;DHT22;7538;53.626;9.906;2022-12-18T11:29:50;-0.30;99.90
14893;DHT22;7538;53.626;9.906;2022-12-18T11:32:35;-0.30;99.90
14893;DHT22;7538;53.626;9.906;2022-12-18T11:35:12;-0.30;99.90
14893;DHT22;7538;53.626;9.906;2022-12-18T11:37:42;-0.40;99.90
14893;DHT22;7538;53.626;9.906;2022-12-18T11:40:14;-0.40;99.90
14893;DHT22;7538;53.626;9.906;2022-12-18T11:42:50;-0.30;99.90
14893;DHT22;7538;53.626;9.906;2022-12-18T11:45:27;-0.30;99.90
14893;DHT22;7538;53.626;9.906;2022-12-18T11:47:58;-0.10;99.90
14893;DHT22;7538;53.626;9.906;2022-12-18T11:50:31;0.10;99.90
14893;DHT22;7538;53.626;9.906;2022-12-18T11:53:00;0.20;99.90
14893;DHT22;7538;53.626;9.906;2022-12-18T11:55:36;0.30;99.90
14893;DHT22;7538;53.626;9.906;2022-12-18T11:58:13;0.40;99.90
14893;DHT22;7538;53.626;9.906;2022-12-18T12:00:49;0.40;99.90
14893;DHT22;7538;53.626;9.906;2022-12-18T12:03:41;0.60;99.90
14893;DHT22;7538;53.626;9.906;2022-12-18T12:06:16;0.30;99.90
14893;DHT22;7538;53.626;9.906;2022-12-18T12:08:57;0.10;99.90
14893;DHT22;7538;53.626;9.906;2022-12-18T12:11:33;-0.10;99.90
14893;DHT22;7538;53.626;9.906;2022-12-18T12:14:16;-0.20;99.90
14893;DHT22;7538;53.626;9.906;2022-12-18T12:16:50;-0.30;99.90
14893;DHT22;7538;53.626;9.906;2022-12-18T12:19:32;-0.20;99.90
14893;DHT22;7538;53.626;9.906;2022-12-18T12:22:07;-0.10;99.90
14893;DHT22;7538;53.626;9.906;2022-12-18T12:24:45;0.00;99.90
14893;DHT22;7538;53.626;9.906;2022-12-18T12:27:19;0.00;99.90
14893;DHT22;7538;53.626;9.906;2022-12-18T12:30:00;-0.10;99.90
14893;DHT22;7538;53.626;9.906;2022-12-18T12:32:45;-0.20;99.90
14893;DHT22;7538;53.626;9.906;2022-12-18T12:35:25;-0.20;99.90
14893;DHT22;7538;53.626;9.906;2022-12-18T12:38:03;-0.30;99.90
14893;DHT22;7538;53.626;9.906;2022-12-18T12:40:35;-0.50;99.90
14893;DHT22;7538;53.626;9.906;2022-12-18T12:43:07;-0.50;99.90
14893;DHT22;7538;53.626;9.906;2022-12-18T12:45:44;-0.50;99.90
14893;DHT22;7538;53.626;9.906;2022-12-18T12:48:18;-0.50;99.90
14893;DHT22;7538;53.626;9.906;2022-12-18T12:50:45;-0.60;99.90
14893;DHT22;7538;53.626;9.906;2022-12-18T12:53:21;-0.50;99.90
14893;DHT22;7538;53.626;9.906;2022-12-18T12:55:48;-0.60;99.90
14893;DHT22;7538;53.626;9.906;2022-12-18T12:58:20;-0.60;99.90
14893;DHT22;7538;53.626;9.906;2022-12-18T13:00:57;-0.70;99.90
14893;DHT22;7538;53.626;9.906;2022-12-18T13:03:36;-0.60;99.90
14893;DHT22;7538;53.626;9.906;2022-12-18T13:06:12;-0.60;99.90
14893;DHT22;7538;53.626;9.906;2022-12-18T13:08:55;-0.50;99.90
14893;DHT22;7538;53.626;9.906;2022-12-18T13:11:46;-0.40;99.90
14893;DHT22;7538;53.626;9.906;2022-12-18T13:14:32;-0.30;99.90
14893;DHT22;7538;53.626;9.906;2022-12-18T13:17:30;-0.20;99.90
14893;DHT22;7538;53.626;9.906;2022-12-18T13:20:11;-0.20;99.90
14893;DHT22;7538;53.626;9.906;2022-12-18T13:22:43;-0.30;99.90
14893;DHT22;7538;53.626;9.906;2022-12-18T13:25:32;-0.30;99.90
14893;DHT22;7538;53.626;9.906;2022-12-18T13:28:08;-0.20;99.90
14893;DHT22;7538;53.626;9.906;2022-12-18T13:30:46;-0.20;99.90
14893;DHT22;7538;53.626;9.906;2022-12-18T13:33:43;-0.20;99.90
14893;DHT22;7538;53.626;9.906;2022-12-18T13:39:32;-0.50;99.90
14893;DHT22;7538;53.626;9.906;2022-12-18T13:42:31;-0.50;99.90
14893;DHT22;7538;53.626;9.906;2022-12-18T13:45:39;-0.50;99.90
14893;DHT22;7538;53.626;9.906;2022-12-18T13:48:24;-0.50;99.90
14893;DHT22;7538;53.626;9.906;2022-12-18T13:50:57;-0.60;99.90
14893;DHT22;7538;53.626;9.906;2022-12-18T13:53:28;-0.70;99.90
14893;DHT22;7538;53.626;9.906;2022-12-18T13:55:56;-0.80;99.90
14893;DHT22;7538;53.626;9.906;2022-12-18T13:58:23;-1.00;99.90
14893;DHT22;7538;53.626;9.906;2022-12-18T14:00:50;-0.90;99.90
14893;DHT22;7538;53.626;9.906;2022-12-18T14:03:20;-0.80;99.90
14893;DHT22;7538;53.626;9.906;2022-12-18T14:05:55;-0.90;99.90
14893;DHT22;7538;53.626;9.906;2022-12-18T14:08:23;-1.10;99.90
14893;DHT22;7538;53.626;9.906;2022-12-18T14:10:51;-1.20;99.90
14893;DHT22;7538;53.626;9.906;2022-12-18T14:13:23;-1.20;99.90
14893;DHT22;7538;53.626;9.906;2022-12-18T14:15:51;-1.30;99.90
14893;DHT22;7538;53.626;9.906;2022-12-18T14:18:22;-1.40;99.90
14893;DHT22;7538;53.626;9.906;2022-12-18T14:20:50;-1.40;99.90
14893;DHT22;7538;53.626;9.906;2022-12-18T14:23:33;-1.50;99.90
14893;DHT22;7538;53.626;9.906;2022-12-18T14:26:01;-1.60;99.90
14893;DHT22;7538;53.626;9.906;2022-12-18T14:28:29;-1.70;99.90
14893;DHT22;7538;53.626;9.906;2022-12-18T14:30:56;-1.70;99.90
14893;DHT22;7538;53.626;9.906;2022-12-18T14:33:24;-1.80;99.90
14893;DHT22;7538;53.626;9.906;2022-12-18T14:35:57;-1.80;99.90
14893;DHT22;7538;53.626;9.906;2022-12-18T14:38:27;-1.90;99.90
14893;DHT22;7538;53.626;9.906;2022-12-18T14:40:57;-2.00;99.90
14893;DHT22;7538;53.626;9.906;2022-12-18T14:43:26;-2.10;99.90
14893;DHT22;7538;53.626;9.906;2022-12-18T14:45:53;-2.10;99.90
14893;DHT22;7538;53.626;9.906;2022-12-18T14:48:22;-2.10;99.90
14893;DHT22;7538;53.626;9.906;2022-12-18T14:50:57;-2.20;99.90
14893;DHT22;7538;53.626;9.906;2022-12-18T14:53:33;-2.10;99.90
14893;DHT22;7538;53.626;9.906;2022-12-18T14:56:02;-2.10;99.90
14893;DHT22;7538;53.626;9.906;2022-12-18T14:58:30;-2.10;99.90
14893;DHT22;7538;53.626;9.906;2022-12-18T15:00:57;-2.20;99.90
14893;DHT22;7538;53.626;9.906;2022-12-18T15:03:24;-2.20;99.90
14893;DHT22;7538;53.626;9.906;2022-12-18T15:05:51;-2.20;99.90
14893;DHT22;7538;53.626;9.906;2022-12-18T15:08:35;-2.20;99.90
14893;DHT22;7538;53.626;9.906;2022-12-18T15:13:45;-2.30;99.90
14893;DHT22;7538;53.626;9.906;2022-12-18T15:16:12;-2.30;99.90
14893;DHT22;7538;53.626;9.906;2022-12-18T15:18:42;-2.30;99.90
14893;DHT22;7538;53.626;9.906;2022-12-18T15:21:11;-2.20;99.90
14893;DHT22;7538;53.626;9.906;2022-12-18T15:23:47;-2.30;99.90
14893;DHT22;7538;53.626;9.906;2022-12-18T15:26:18;-2.40;99.90
14893;DHT22;7538;53.626;9.906;2022-12-18T15:28:47;-2.40;99.90
14893;DHT22;7538;53.626;9.906;2022-12-18T15:31:28;-2.50;99.90
14893;DHT22;7538;53.626;9.906;2022-12-18T15:34:14;-2.40;99.90
14893;DHT22;7538;53.626;9.906;2022-12-18T15:36:44;-2.50;99.90
14893;DHT22;7538;53.626;9.906;2022-12-18T15:39:12;-2.40;99.90
14893;DHT22;7538;53.626;9.906;2022-12-18T15:41:40;-2.40;99.90
14893;DHT22;7538;53.626;9.906;2022-12-18T15:44:27;-2.40;99.90
14893;DHT22;7538;53.626;9.906;2022-12-18T15:46:53;-2.40;99.90
14893;DHT22;7538;53.626;9.906;2022-12-18T15:49:20;-2.30;99.90
14893;DHT22;7538;53.626;9.906;2022-12-18T15:51:49;-2.30;99.90
14893;DHT22;7538;53.626;9.906;2022-12-18T15:54:18;-2.30;99.90
14893;DHT22;7538;53.626;9.906;2022-12-18T15:57:08;-2.40;99.90
14893;DHT22;7538;53.626;9.906;2022-12-18T15:59:50;-2.40;99.90
14893;DHT22;7538;53.626;9.906;2022-12-18T16:02:19;-2.40;99.90
14893;DHT22;7538;53.626;9.906;2022-12-18T16:04:48;-2.50;99.90
14893;DHT22;7538;53.626;9.906;2022-12-18T16:07:15;-2.40;99.90
14893;DHT22;7538;53.626;9.906;2022-12-18T16:09:42;-2.40;99.90
14893;DHT22;7538;53.626;9.906;2022-12-18T16:12:16;-2.50;99.90
14893;DHT22;7538;53.626;9.906;2022-12-18T16:14:43;-2.50;99.90
14893;DHT22;7538;53.626;9.906;2022-12-18T16:17:12;-2.40;99.90